DAUE

El Golea Airport

Algeria
METAR DAUE 182300Z 08010KT 9999 FEW040 31/14 Q1016
Observed Flight Rules
Aug-18 @ 23:00 UTC (44 minutes ago) Visual Flight Rules
Wind Visibility Clouds
80° at 10 knots 10,000+ meters
  • Few at 4,000' AGL
Temperatures Readings
Current 31°C / 88°F
Dewpoint 14°C / 57°F
Humidity 35%
Altimeter 30" Hg
Pressure 1016 hPa
Elevation 397
METAR DAUE 182300Z 08010KT 9999 FEW040 31/14 Q1016
Observed Flight Rules
Aug-18 @ 23:00 UTC
(44 minutes ago)
VFR
Wind Visibility
80° at 10 knots 10,000+ meters
Clouds
  • Few at 4,000' AGL
Temperature Dewpoint
31°C / 88°F 14°C / 57°F
Humidity Altimeter Pressure
35% 30" Hg 1016 hPa